createdAt,value
2023-04-19T00:01:31.131Z,100580.98
2023-04-19T00:04:15.514Z,100582.59
2023-04-19T00:06:44.872Z,100578.57
2023-04-19T00:09:15.350Z,100576.98
2023-04-19T00:11:43.603Z,100567.20
2023-04-19T00:14:11.830Z,100567.06
2023-04-19T00:16:48.887Z,100566.38
2023-04-19T00:19:19.267Z,100566.09
2023-04-19T00:21:47.582Z,100565.42
2023-04-19T00:24:16.275Z,100561.27
2023-04-19T00:26:44.728Z,100555.54
2023-04-19T00:29:12.900Z,100554.54
2023-04-19T00:31:41.165Z,100553.21
2023-04-19T00:34:09.512Z,100554.03
2023-04-19T00:36:38.238Z,100548.71
2023-04-19T00:39:06.702Z,100545.15
2023-04-19T00:41:34.966Z,100543.32
2023-04-19T00:44:03.362Z,100539.95
2023-04-19T00:46:32.216Z,100542.11
2023-04-19T00:49:01.000Z,100539.71
2023-04-19T00:51:29.998Z,100539.27
2023-04-19T00:53:58.717Z,100534.99
2023-04-19T00:56:30.173Z,100528.45
2023-04-19T00:58:59.865Z,100528.20
2023-04-19T01:01:29.261Z,100526.73
2023-04-19T01:03:57.886Z,100521.27
2023-04-19T01:06:28.501Z,100517.92
2023-04-19T01:08:57.459Z,100518.75
2023-04-19T01:11:26.710Z,100513.95
2023-04-19T01:13:56.099Z,100516.77
2023-04-19T01:16:27.067Z,100514.95
2023-04-19T01:18:55.614Z,100516.48
2023-04-19T01:21:23.901Z,100516.17
2023-04-19T01:23:52.740Z,100516.96
2023-04-19T01:26:21.116Z,100515.11
2023-04-19T01:28:56.621Z,100510.65
2023-04-19T01:31:25.329Z,100514.95
2023-04-19T01:33:53.548Z,100509.70
2023-04-19T01:36:22.320Z,100510.53
2023-04-19T01:38:51.055Z,100511.00
2023-04-19T01:41:20.693Z,100504.35
2023-04-19T01:43:48.903Z,100508.34
2023-04-19T01:46:17.092Z,100504.26
2023-04-19T01:48:45.414Z,100501.60
2023-04-19T01:51:13.675Z,100496.95
2023-04-19T01:53:41.963Z,100496.56
2023-04-19T01:56:10.616Z,100497.17
2023-04-19T01:58:39.018Z,100498.15
2023-04-19T02:01:09.885Z,100499.13
2023-04-19T02:03:41.045Z,100500.23
2023-04-19T02:06:13.867Z,100500.66
2023-04-19T02:08:43.024Z,100502.00
2023-04-19T02:11:16.561Z,100502.36
2023-04-19T02:13:44.932Z,100499.53
2023-04-19T02:16:13.409Z,100497.14
2023-04-19T02:18:41.740Z,100490.58
2023-04-19T02:21:11.290Z,100490.54
2023-04-19T02:23:39.726Z,100488.02
2023-04-19T02:26:08.333Z,100487.41
2023-04-19T02:28:38.230Z,100492.27
2023-04-19T02:31:07.187Z,100491.48
2023-04-19T02:33:36.688Z,100488.63
2023-04-19T02:36:05.193Z,100491.20
2023-04-19T02:38:33.577Z,100489.52
2023-04-19T02:41:04.585Z,100489.17
2023-04-19T02:43:33.179Z,100483.98
2023-04-19T02:46:02.410Z,100485.36
2023-04-19T02:48:30.780Z,100490.20
2023-04-19T02:50:59.566Z,100484.92
2023-04-19T02:53:28.704Z,100485.37
2023-04-19T02:55:57.354Z,100485.06
2023-04-19T02:58:25.957Z,100485.98
2023-04-19T03:00:54.397Z,100479.96
2023-04-19T03:03:22.824Z,100478.20
2023-04-19T03:05:51.260Z,100479.36
2023-04-19T03:08:20.090Z,100473.03
2023-04-19T03:10:55.900Z,100478.34
2023-04-19T03:13:24.227Z,100477.59
2023-04-19T03:15:53.153Z,100476.13
2023-04-19T03:18:21.773Z,100468.90
2023-04-19T03:20:50.070Z,100466.02
2023-04-19T03:23:18.474Z,100468.86
2023-04-19T03:25:46.786Z,100466.35
2023-04-19T03:28:15.819Z,100466.25
2023-04-19T03:30:44.091Z,100460.05
2023-04-19T03:33:12.995Z,100460.98
2023-04-19T03:35:41.488Z,100462.27
2023-04-19T03:38:09.870Z,100467.20
2023-04-19T03:40:38.929Z,100463.25
2023-04-19T03:43:07.201Z,100458.09
2023-04-19T03:45:44.561Z,100457.42
2023-04-19T03:48:12.888Z,100448.08
2023-04-19T03:50:44.583Z,100445.35
2023-04-19T03:53:13.086Z,100440.54
2023-04-19T03:55:41.291Z,100435.90
2023-04-19T03:58:10.248Z,100439.04
2023-04-19T04:00:38.518Z,100448.08
2023-04-19T04:03:07.042Z,100449.66
2023-04-19T04:05:35.834Z,100445.36
2023-04-19T04:08:05.133Z,100446.43
2023-04-19T04:10:34.021Z,100446.63
2023-04-19T04:13:02.936Z,100446.81
2023-04-19T04:15:31.404Z,100448.39
2023-04-19T04:18:02.938Z,100445.98
2023-04-19T04:20:31.789Z,100441.17
2023-04-19T04:23:00.697Z,100447.06
2023-04-19T04:25:29.107Z,100442.39
2023-04-19T04:27:57.316Z,100445.16
2023-04-19T04:30:27.948Z,100441.36
2023-04-19T04:33:08.601Z,100441.71
2023-04-19T04:35:36.903Z,100439.83
2023-04-19T04:38:17.567Z,100442.23
2023-04-19T04:40:57.015Z,100433.58
2023-04-19T04:43:29.375Z,100426.98
2023-04-19T04:45:58.242Z,100431.12
2023-04-19T04:48:27.045Z,100433.20
2023-04-19T04:50:55.548Z,100426.80
2023-04-19T04:53:27.497Z,100418.65
2023-04-19T04:55:55.753Z,100417.10
2023-04-19T04:58:23.901Z,100415.35
2023-04-19T05:00:52.169Z,100411.54
2023-04-19T05:03:20.608Z,100411.86
2023-04-19T05:05:48.895Z,100410.98
2023-04-19T05:08:17.180Z,100411.66
2023-04-19T05:10:45.706Z,100402.45
2023-04-19T05:13:13.988Z,100401.75
2023-04-19T05:15:42.355Z,100401.55
2023-04-19T05:18:10.904Z,100391.98
2023-04-19T05:20:39.193Z,100391.34
2023-04-19T05:23:08.425Z,100385.90
2023-04-19T05:25:36.868Z,100382.75
2023-04-19T05:28:05.863Z,100376.21
2023-04-19T05:30:34.319Z,100378.92
2023-04-19T05:33:02.722Z,100375.46
2023-04-19T05:35:31.310Z,100373.36
2023-04-19T05:37:59.509Z,100368.48
2023-04-19T05:40:28.585Z,100368.96
2023-04-19T05:42:56.728Z,100367.70
2023-04-19T05:45:26.437Z,100364.30
2023-04-19T05:47:57.131Z,100362.65
2023-04-19T05:50:25.345Z,100359.60
2023-04-19T05:52:54.384Z,100364.42
2023-04-19T05:55:25.298Z,100365.86
2023-04-19T05:58:01.235Z,100366.08
2023-04-19T06:00:30.030Z,100363.27
2023-04-19T06:02:58.395Z,100357.40
2023-04-19T06:05:26.925Z,100362.42
2023-04-19T06:08:02.907Z,100360.85
2023-04-19T06:10:48.374Z,100359.74
2023-04-19T06:13:19.959Z,100366.55
2023-04-19T06:15:49.104Z,100358.89
2023-04-19T06:18:19.190Z,100359.75
2023-04-19T06:20:48.445Z,100357.46
2023-04-19T06:23:18.787Z,100351.53
2023-04-19T06:25:49.171Z,100349.42
2023-04-19T06:28:17.479Z,100348.33
2023-04-19T06:30:46.229Z,100346.95
2023-04-19T06:33:14.499Z,100352.88
2023-04-19T06:35:43.258Z,100350.45
2023-04-19T06:38:11.856Z,100350.59
2023-04-19T06:40:40.160Z,100353.73
2023-04-19T06:43:08.344Z,100355.29
2023-04-19T06:45:36.655Z,100350.10
2023-04-19T06:48:05.447Z,100352.54
2023-04-19T06:50:33.738Z,100353.40
2023-04-19T06:53:05.063Z,100347.13
2023-04-19T06:55:33.935Z,100349.02
2023-04-19T06:58:02.286Z,100347.92
2023-04-19T07:00:30.537Z,100343.33
2023-04-19T07:03:00.215Z,100345.43
2023-04-19T07:05:30.894Z,100345.69
2023-04-19T07:07:59.203Z,100348.86
2023-04-19T07:10:27.600Z,100349.49
2023-04-19T07:12:56.088Z,100351.41
2023-04-19T07:15:24.278Z,100350.88
2023-04-19T07:17:53.076Z,100353.12
2023-04-19T07:20:22.188Z,100353.13
2023-04-19T07:22:50.664Z,100351.23
2023-04-19T07:25:19.199Z,100347.23
2023-04-19T07:27:47.370Z,100348.91
2023-04-19T07:30:15.634Z,100351.11
2023-04-19T07:32:44.328Z,100352.33
2023-04-19T07:35:12.909Z,100349.17
2023-04-19T07:37:42.692Z,100349.46
2023-04-19T07:40:11.857Z,100354.64
2023-04-19T07:42:40.605Z,100349.60
2023-04-19T07:45:09.449Z,100355.52
2023-04-19T07:47:37.803Z,100354.95
2023-04-19T07:50:07.836Z,100350.06
2023-04-19T07:52:36.402Z,100348.44
2023-04-19T07:55:05.101Z,100348.88
2023-04-19T07:57:34.960Z,100344.77
2023-04-19T08:00:05.064Z,100336.86
2023-04-19T08:02:33.889Z,100339.14
2023-04-19T08:05:02.692Z,100334.30
2023-04-19T08:07:31.165Z,100340.48
2023-04-19T08:09:59.666Z,100337.63
2023-04-19T08:12:36.451Z,100335.37
2023-04-19T08:15:29.174Z,100332.64
2023-04-19T08:17:57.385Z,100330.33
2023-04-19T08:20:25.837Z,100327.55
2023-04-19T08:22:56.949Z,100324.23
2023-04-19T08:25:28.684Z,100319.44
2023-04-19T08:27:58.381Z,100317.45
2023-04-19T08:30:27.356Z,100319.63
2023-04-19T08:32:57.288Z,100318.30
2023-04-19T08:35:25.865Z,100319.97
2023-04-19T08:37:54.154Z,100317.78
2023-04-19T08:40:22.482Z,100317.20
2023-04-19T08:42:52.004Z,100320.17
2023-04-19T08:45:28.281Z,100321.25
2023-04-19T08:48:01.884Z,100321.42
2023-04-19T08:50:38.700Z,100315.36
2023-04-19T08:53:24.978Z,100313.29
2023-04-19T09:01:12.850Z,100307.70
2023-04-19T09:04:00.461Z,100310.05
2023-04-19T09:06:29.590Z,100307.72
2023-04-19T09:09:33.168Z,100305.84
2023-04-19T09:12:03.869Z,100302.62
2023-04-19T09:14:32.036Z,100300.30
2023-04-19T09:17:17.214Z,100299.66
2023-04-19T09:19:47.984Z,100298.02
2023-04-19T09:22:16.858Z,100304.27
2023-04-19T09:27:27.673Z,100300.14
2023-04-19T09:29:57.172Z,100297.30
2023-04-19T09:32:27.416Z,100296.64
2023-04-19T09:34:57.833Z,100297.29
2023-04-19T09:39:58.582Z,100292.35
2023-04-19T09:48:05.120Z,100293.95
2023-04-19T09:50:46.254Z,100290.70
2023-04-19T09:53:24.147Z,100290.55
2023-04-19T09:56:01.627Z,100287.20
2023-04-19T09:58:42.618Z,100285.11
2023-04-19T10:01:20.410Z,100283.09
2023-04-19T10:03:50.837Z,100286.02
2023-04-19T10:08:54.327Z,100287.82
2023-04-19T10:11:23.722Z,100287.56
2023-04-19T10:13:57.504Z,100284.58
2023-04-19T10:16:27.363Z,100279.20
2023-04-19T10:18:57.188Z,100271.20
2023-04-19T10:21:28.289Z,100273.87
2023-04-19T10:23:57.439Z,100270.59
2023-04-19T10:26:25.718Z,100269.77
2023-04-19T10:28:57.587Z,100266.02
2023-04-19T10:31:27.013Z,100271.49
2023-04-19T10:33:55.823Z,100273.05
2023-04-19T10:36:29.125Z,100272.64
2023-04-19T10:38:57.466Z,100270.36
2023-04-19T10:41:56.739Z,100281.02
2023-04-19T10:44:25.006Z,100283.14
2023-04-19T10:46:53.185Z,100287.58
2023-04-19T10:49:24.058Z,100282.30
2023-04-19T10:51:55.052Z,100288.57
2023-04-19T10:54:39.354Z,100287.44
2023-04-19T10:57:11.759Z,100285.91
2023-04-19T10:59:43.308Z,100282.26
2023-04-19T11:02:28.498Z,100280.12
2023-04-19T11:04:58.658Z,100277.95
2023-04-19T11:07:29.524Z,100277.14
2023-04-19T11:09:57.940Z,100275.27
2023-04-19T11:12:26.930Z,100275.11
2023-04-19T11:14:59.911Z,100281.33
2023-04-19T11:17:32.731Z,100273.08
2023-04-19T11:20:09.649Z,100271.20
2023-04-19T11:22:40.636Z,100262.94
2023-04-19T11:25:20.852Z,100263.52
2023-04-19T11:27:52.326Z,100260.52
2023-04-19T11:30:22.890Z,100260.63
2023-04-19T11:32:56.462Z,100257.95
2023-04-19T11:35:30.526Z,100257.92
2023-04-19T11:38:00.000Z,100254.08
2023-04-19T11:40:28.803Z,100255.41
2023-04-19T11:43:02.953Z,100251.59
2023-04-19T11:45:38.178Z,100250.05
2023-04-19T11:48:15.962Z,100248.91
2023-04-19T11:50:49.736Z,100245.25
2023-04-19T11:53:24.194Z,100239.71
2023-04-19T11:55:55.147Z,100240.14
2023-04-19T11:58:49.124Z,100240.41
2023-04-19T12:01:21.283Z,100241.14
2023-04-19T12:03:53.880Z,100236.11
2023-04-19T12:06:27.039Z,100238.61
2023-04-19T12:08:57.097Z,100237.73
2023-04-19T12:11:41.919Z,100238.77
2023-04-19T12:14:15.255Z,100234.63
2023-04-19T12:16:45.241Z,100235.47
2023-04-19T12:19:20.428Z,100235.98
2023-04-19T12:21:49.032Z,100232.02
2023-04-19T12:24:18.034Z,100228.23
2023-04-19T12:26:57.260Z,100225.11
2023-04-19T12:29:27.537Z,100221.40
2023-04-19T12:31:56.145Z,100218.41
2023-04-19T12:34:24.442Z,100212.46
2023-04-19T12:36:53.116Z,100214.29
2023-04-19T12:39:21.352Z,100215.27
2023-04-19T12:41:49.949Z,100213.86
2023-04-19T12:44:18.279Z,100216.40
2023-04-19T12:46:46.641Z,100211.30
2023-04-19T12:49:15.381Z,100203.45
2023-04-19T12:51:44.207Z,100195.92
2023-04-19T12:54:12.869Z,100196.09
2023-04-19T12:56:41.308Z,100192.92
2023-04-19T12:59:09.601Z,100189.46
2023-04-19T13:01:37.992Z,100187.48
2023-04-19T13:04:08.075Z,100189.39
2023-04-19T13:06:39.167Z,100187.10
2023-04-19T13:09:14.168Z,100183.51
2023-04-19T13:11:43.647Z,100182.77
2023-04-19T13:14:12.668Z,100178.63
2023-04-19T13:16:41.156Z,100178.50
2023-04-19T13:19:09.574Z,100179.70
2023-04-19T13:21:38.563Z,100180.36
2023-04-19T13:24:07.080Z,100172.38
2023-04-19T13:26:35.745Z,100171.90
2023-04-19T13:29:04.327Z,100169.20
2023-04-19T13:31:32.545Z,100167.10
2023-04-19T13:34:01.576Z,100164.84
2023-04-19T13:36:30.232Z,100161.86
2023-04-19T13:38:58.636Z,100162.40
2023-04-19T13:41:27.295Z,100161.69
2023-04-19T13:43:55.737Z,100160.95
2023-04-19T13:46:23.993Z,100156.23
2023-04-19T13:48:52.801Z,100155.71
2023-04-19T13:51:21.175Z,100155.56
2023-04-19T13:53:50.052Z,100155.21
2023-04-19T13:56:19.186Z,100156.05
2023-04-19T13:58:47.449Z,100148.86
2023-04-19T14:01:16.485Z,100147.95
2023-04-19T14:03:45.548Z,100140.98
2023-04-19T14:06:14.241Z,100144.49
2023-04-19T14:08:45.569Z,100142.60
2023-04-19T14:11:13.917Z,100142.59
2023-04-19T14:13:43.112Z,100137.67
2023-04-19T14:16:12.099Z,100135.50
2023-04-19T14:18:40.991Z,100136.51
2023-04-19T14:21:10.016Z,100134.22
2023-04-19T14:23:38.341Z,100132.27
2023-04-19T14:26:07.774Z,100123.60
2023-04-19T14:28:37.044Z,100121.00
2023-04-19T14:31:05.525Z,100123.95
2023-04-19T14:33:34.429Z,100117.85
2023-04-19T14:36:02.756Z,100113.13
2023-04-19T14:38:31.612Z,100110.13
2023-04-19T14:41:00.161Z,100111.83
2023-04-19T14:43:29.491Z,100111.80
2023-04-19T14:45:58.425Z,100108.33
2023-04-19T14:48:26.690Z,100107.45
2023-04-19T14:50:56.175Z,100106.77
2023-04-19T14:53:24.472Z,100109.77
2023-04-19T14:55:53.347Z,100108.40
2023-04-19T14:58:21.609Z,100105.79
2023-04-19T15:00:50.540Z,100104.74
2023-04-19T15:03:19.026Z,100105.27
2023-04-19T15:05:47.593Z,100103.67
2023-04-19T15:08:29.685Z,100104.02
2023-04-19T15:10:59.195Z,100102.30
2023-04-19T15:13:27.476Z,100101.27
2023-04-19T15:15:56.254Z,100100.10
2023-04-19T15:18:24.658Z,100099.08
2023-04-19T15:20:53.370Z,100098.89
2023-04-19T15:23:27.461Z,100096.45
2023-04-19T15:25:56.702Z,100096.29
2023-04-19T15:28:25.397Z,100096.83
2023-04-19T15:31:02.129Z,100097.48
2023-04-19T15:33:31.347Z,100096.91
2023-04-19T15:35:59.960Z,100091.70
2023-04-19T15:38:31.169Z,100089.05
2023-04-19T15:41:01.612Z,100089.90
2023-04-19T15:43:30.368Z,100090.61
2023-04-19T15:45:59.018Z,100092.62
2023-04-19T15:48:28.609Z,100086.91
2023-04-19T15:50:57.022Z,100086.52
2023-04-19T15:53:25.352Z,100089.10
2023-04-19T15:55:55.427Z,100087.38
2023-04-19T15:58:25.131Z,100090.95
2023-04-19T16:00:54.324Z,100094.90
2023-04-19T16:03:23.389Z,100093.23
2023-04-19T16:05:51.946Z,100095.84
2023-04-19T16:08:20.282Z,100097.04
2023-04-19T16:10:49.793Z,100098.61
2023-04-19T16:13:18.591Z,100094.52
2023-04-19T16:15:46.887Z,100091.81
2023-04-19T16:18:15.171Z,100087.16
2023-04-19T16:20:43.462Z,100088.45
2023-04-19T16:23:14.967Z,100091.31
2023-04-19T16:25:43.353Z,100088.05
2023-04-19T16:28:12.533Z,100088.71
2023-04-19T16:30:40.715Z,100089.44
2023-04-19T16:33:09.479Z,100086.72
2023-04-19T16:35:49.274Z,100091.59
2023-04-19T16:38:17.681Z,100093.67
2023-04-19T16:40:55.970Z,100091.89
2023-04-19T16:43:25.120Z,100091.52
2023-04-19T16:45:53.438Z,100095.82
2023-04-19T16:48:22.232Z,100093.07
2023-04-19T16:50:50.394Z,100099.00
2023-04-19T16:53:18.568Z,100097.06
2023-04-19T16:55:46.745Z,100097.05
2023-04-19T16:58:15.436Z,100101.95
2023-04-19T17:00:43.915Z,100101.46
2023-04-19T17:03:12.764Z,100099.39
2023-04-19T17:05:41.281Z,100103.56
2023-04-19T17:08:11.228Z,100108.58
2023-04-19T17:10:39.474Z,100104.94
2023-04-19T17:13:07.744Z,100100.48
2023-04-19T17:15:38.048Z,100103.26
2023-04-19T17:18:06.459Z,100101.02
2023-04-19T17:20:34.851Z,100104.32
2023-04-19T17:23:03.032Z,100105.15
2023-04-19T17:25:31.577Z,100106.02
2023-04-19T17:27:59.870Z,100108.27
2023-04-19T17:30:28.619Z,100110.15
2023-04-19T17:32:57.055Z,100107.58
2023-04-19T17:35:26.493Z,100111.71
2023-04-19T17:37:56.500Z,100115.74
2023-04-19T17:40:27.402Z,100118.73
2023-04-19T17:42:57.352Z,100122.06
2023-04-19T17:45:26.720Z,100122.09
2023-04-19T17:47:56.402Z,100123.33
2023-04-19T17:50:26.805Z,100124.17
2023-04-19T17:52:55.865Z,100121.94
2023-04-19T17:55:27.007Z,100123.28
2023-04-19T17:57:55.838Z,100131.77
2023-04-19T18:00:24.284Z,100132.23
2023-04-19T18:02:52.740Z,100134.34
2023-04-19T18:05:21.238Z,100136.63
2023-04-19T18:07:50.065Z,100138.20
2023-04-19T18:10:21.304Z,100142.38
2023-04-19T18:12:49.538Z,100142.36
2023-04-19T18:15:18.303Z,100142.52
2023-04-19T18:17:46.831Z,100143.95
2023-04-19T18:20:16.371Z,100148.13
2023-04-19T18:22:47.855Z,100151.05
2023-04-19T18:25:16.198Z,100152.44
2023-04-19T18:27:44.793Z,100155.73
2023-04-19T18:30:13.996Z,100157.63
2023-04-19T18:32:42.324Z,100158.47
2023-04-19T18:35:11.153Z,100161.77
2023-04-19T18:37:41.895Z,100161.13
2023-04-19T18:40:13.685Z,100162.71
2023-04-19T18:42:42.059Z,100162.17
2023-04-19T18:45:10.721Z,100165.77
2023-04-19T18:47:39.411Z,100165.75
2023-04-19T18:50:12.190Z,100168.86
2023-04-19T18:52:40.834Z,100174.25
2023-04-19T18:55:09.498Z,100173.75
2023-04-19T18:57:39.209Z,100178.98
2023-04-19T19:00:11.445Z,100175.15
2023-04-19T19:02:41.421Z,100176.52
2023-04-19T19:05:13.486Z,100175.27
2023-04-19T19:07:42.936Z,100176.65
2023-04-19T19:12:43.338Z,100176.85
2023-04-19T19:15:14.660Z,100178.73
2023-04-19T19:17:50.415Z,100179.11
2023-04-19T19:20:51.552Z,100181.58
2023-04-19T19:23:59.678Z,100178.08
2023-04-19T19:26:28.960Z,100178.22
2023-04-19T19:29:00.903Z,100184.96
2023-04-19T19:31:32.474Z,100184.09
2023-04-19T19:34:23.360Z,100190.83
2023-04-19T19:36:54.618Z,100191.05
2023-04-19T19:39:26.488Z,100196.59
2023-04-19T19:44:25.948Z,100188.04
2023-04-19T19:47:27.933Z,100184.38
2023-04-19T19:51:01.012Z,100183.89
2023-04-19T19:53:13.535Z,100190.66
2023-04-19T19:56:12.971Z,100205.97
2023-04-19T19:58:51.390Z,100203.57
2023-04-19T20:01:22.601Z,100212.95
2023-04-19T20:03:52.132Z,100211.70
2023-04-19T20:08:52.252Z,100211.84
2023-04-19T20:11:21.155Z,100210.63
2023-04-19T20:13:52.550Z,100217.09
2023-04-19T20:16:23.711Z,100214.51
2023-04-19T20:18:52.856Z,100213.11
2023-04-19T20:21:24.388Z,100212.77
2023-04-19T20:23:56.026Z,100215.72
2023-04-19T20:26:28.976Z,100210.32
2023-04-19T20:28:57.164Z,100209.80
2023-04-19T20:31:26.560Z,100210.82
2023-04-19T20:33:57.646Z,100210.80
2023-04-19T20:36:27.915Z,100203.83
2023-04-19T20:38:57.090Z,100203.48
2023-04-19T20:41:25.300Z,100207.33
2023-04-19T20:43:57.130Z,100201.60
2023-04-19T20:46:25.315Z,100209.09
2023-04-19T20:48:54.217Z,100210.51
2023-04-19T20:51:22.463Z,100210.19
2023-04-19T20:53:50.739Z,100209.65
2023-04-19T20:56:19.012Z,100211.02
2023-04-19T20:58:47.122Z,100213.95
2023-04-19T21:01:17.643Z,100214.64
2023-04-19T21:03:46.757Z,100213.95
2023-04-19T21:06:16.147Z,100213.30
2023-04-19T21:08:44.737Z,100215.44
2023-04-19T21:11:12.962Z,100216.66
2023-04-19T21:13:41.659Z,100216.33
2023-04-19T21:16:10.688Z,100216.55
2023-04-19T21:18:39.408Z,100220.03
2023-04-19T21:21:10.702Z,100222.48
2023-04-19T21:23:39.286Z,100226.00
2023-04-19T21:26:08.510Z,100227.27
2023-04-19T21:28:36.872Z,100232.02
2023-04-19T21:31:05.261Z,100229.39
2023-04-19T21:33:33.599Z,100234.73
2023-04-19T21:36:01.687Z,100233.32
2023-04-19T21:38:30.486Z,100229.31
2023-04-19T21:40:58.644Z,100226.36
2023-04-19T21:43:26.873Z,100221.86
2023-04-19T21:45:55.229Z,100223.95
2023-04-19T21:48:23.413Z,100229.70
2023-04-19T21:50:51.976Z,100232.54
2023-04-19T21:53:20.149Z,100235.15
2023-04-19T21:55:51.377Z,100233.07
2023-04-19T21:58:19.687Z,100232.37
2023-04-19T22:00:48.662Z,100234.79
2023-04-19T22:03:16.927Z,100233.23
2023-04-19T22:05:47.433Z,100228.88
2023-04-19T22:08:20.754Z,100232.68
2023-04-19T22:10:50.574Z,100231.13
2023-04-19T22:13:21.730Z,100238.04
2023-04-19T22:15:49.924Z,100230.09
2023-04-19T22:18:20.868Z,100227.85
2023-04-19T22:20:51.094Z,100224.05
2023-04-19T22:23:21.996Z,100228.20
2023-04-19T22:25:50.354Z,100224.92
2023-04-19T22:28:18.643Z,100223.70
2023-04-19T22:30:46.844Z,100226.81
2023-04-19T22:33:16.307Z,100223.66
2023-04-19T22:35:44.480Z,100221.77
2023-04-19T22:38:13.174Z,100221.44
2023-04-19T22:40:42.805Z,100224.21
2023-04-19T22:43:12.473Z,100221.09
2023-04-19T22:45:40.839Z,100220.92
2023-04-19T22:48:09.074Z,100219.71
2023-04-19T22:50:37.742Z,100221.45
2023-04-19T22:53:06.045Z,100219.94
2023-04-19T22:55:43.019Z,100218.42
2023-04-19T22:58:11.509Z,100221.39
2023-04-19T23:00:40.230Z,100223.17
2023-04-19T23:03:08.606Z,100226.52
2023-04-19T23:05:37.688Z,100228.31
2023-04-19T23:08:07.346Z,100225.17
2023-04-19T23:10:39.101Z,100223.95
2023-04-19T23:13:10.350Z,100224.13
2023-04-19T23:15:39.455Z,100223.77
2023-04-19T23:18:11.749Z,100223.60
2023-04-19T23:20:40.414Z,100221.18
2023-04-19T23:23:09.456Z,100221.17
2023-04-19T23:25:37.835Z,100222.39
2023-04-19T23:28:06.249Z,100222.36
2023-04-19T23:30:34.518Z,100220.61
2023-04-19T23:33:03.132Z,100211.95
2023-04-19T23:35:31.645Z,100216.48
2023-04-19T23:37:59.935Z,100213.75
2023-04-19T23:40:28.285Z,100211.34
2023-04-19T23:42:56.751Z,100212.59
2023-04-19T23:45:25.056Z,100211.19
2023-04-19T23:47:53.755Z,100208.95
2023-04-19T23:50:25.681Z,100210.55
2023-04-19T23:52:54.155Z,100206.61
2023-04-19T23:55:23.356Z,100205.25
2023-04-19T23:57:51.929Z,100204.75
